sensor_id;sensor_type;location;lat;lon;timestamp;noise_LAeq;noise_LA_min;noise_LA_max;noise_LA01;noise_LA95
58303;Laerm;44109;52.398;7.024;2023-04-15T00:01:35;43.25;31.62;56.66;;
58303;Laerm;44109;52.398;7.024;2023-04-15T00:04:03;43.29;31.17;56.62;;
58303;Laerm;44109;52.398;7.024;2023-04-15T00:06:31;43.28;31.11;56.61;;
58303;Laerm;44109;52.398;7.024;2023-04-15T00:08:58;43.29;31.40;56.60;;
58303;Laerm;44109;52.398;7.024;2023-04-15T00:11:26;43.23;31.52;56.24;;
58303;Laerm;44109;52.398;7.024;2023-04-15T00:13:55;43.43;31.68;56.70;;
58303;Laerm;44109;52.398;7.024;2023-04-15T00:16:24;43.17;31.32;56.43;;
58303;Laerm;44109;52.398;7.024;2023-04-15T00:18:53;43.18;31.34;56.79;;
58303;Laerm;44109;52.398;7.024;2023-04-15T00:21:20;43.19;31.27;56.58;;
58303;Laerm;44109;52.398;7.024;2023-04-15T00:23:48;43.24;31.39;57.16;;
58303;Laerm;44109;52.398;7.024;2023-04-15T00:26:18;43.62;31.28;57.20;;
58303;Laerm;44109;52.398;7.024;2023-04-15T00:28:47;43.55;31.24;56.71;;
58303;Laerm;44109;52.398;7.024;2023-04-15T00:31:14;43.34;31.08;56.65;;
58303;Laerm;44109;52.398;7.024;2023-04-15T00:33:42;43.51;31.66;56.30;;
58303;Laerm;44109;52.398;7.024;2023-04-15T00:36:11;43.39;31.41;56.63;;
58303;Laerm;44109;52.398;7.024;2023-04-15T00:38:38;43.70;31.66;56.42;;
58303;Laerm;44109;52.398;7.024;2023-04-15T00:41:07;43.45;31.31;56.57;;
58303;Laerm;44109;52.398;7.024;2023-04-15T00:43:36;43.18;31.19;56.53;;
58303;Laerm;44109;52.398;7.024;2023-04-15T00:46:04;43.16;31.37;56.58;;
58303;Laerm;44109;52.398;7.024;2023-04-15T00:48:32;43.10;31.15;55.96;;
58303;Laerm;44109;52.398;7.024;2023-04-15T00:51:00;43.43;31.37;56.53;;
58303;Laerm;44109;52.398;7.024;2023-04-15T00:53:29;43.18;31.27;56.47;;
58303;Laerm;44109;52.398;7.024;2023-04-15T00:55:57;43.39;31.51;56.92;;
58303;Laerm;44109;52.398;7.024;2023-04-15T00:58:25;43.31;31.55;56.35;;
58303;Laerm;44109;52.398;7.024;2023-04-15T01:00:54;43.54;31.35;56.66;;
58303;Laerm;44109;52.398;7.024;2023-04-15T01:03:23;43.20;30.81;56.38;;
58303;Laerm;44109;52.398;7.024;2023-04-15T01:05:50;43.40;31.19;56.91;;
58303;Laerm;44109;52.398;7.024;2023-04-15T01:08:26;42.99;31.45;56.63;;
58303;Laerm;44109;52.398;7.024;2023-04-15T01:10:56;43.34;31.07;56.62;;
58303;Laerm;44109;52.398;7.024;2023-04-15T01:13:25;43.43;31.36;57.08;;
58303;Laerm;44109;52.398;7.024;2023-04-15T01:15:55;43.53;31.63;56.77;;
58303;Laerm;44109;52.398;7.024;2023-04-15T01:18:23;43.80;31.65;56.43;;
58303;Laerm;44109;52.398;7.024;2023-04-15T01:20:51;43.57;31.46;56.66;;
58303;Laerm;44109;52.398;7.024;2023-04-15T01:23:19;43.43;31.39;56.03;;
58303;Laerm;44109;52.398;7.024;2023-04-15T01:25:49;43.46;31.41;56.75;;
58303;Laerm;44109;52.398;7.024;2023-04-15T01:28:16;43.55;31.44;56.90;;
58303;Laerm;44109;52.398;7.024;2023-04-15T01:30:44;43.49;31.47;56.13;;
58303;Laerm;44109;52.398;7.024;2023-04-15T01:33:12;43.47;31.11;56.29;;
58303;Laerm;44109;52.398;7.024;2023-04-15T01:35:39;43.53;30.97;56.98;;
58303;Laerm;44109;52.398;7.024;2023-04-15T01:38:11;43.28;31.05;56.64;;
58303;Laerm;44109;52.398;7.024;2023-04-15T01:40:38;43.61;31.12;56.52;;
58303;Laerm;44109;52.398;7.024;2023-04-15T01:43:08;43.43;31.27;56.83;;
58303;Laerm;44109;52.398;7.024;2023-04-15T01:45:35;43.49;31.26;56.99;;
58303;Laerm;44109;52.398;7.024;2023-04-15T01:48:03;43.42;31.31;56.82;;
58303;Laerm;44109;52.398;7.024;2023-04-15T01:50:31;43.31;31.16;56.35;;
58303;Laerm;44109;52.398;7.024;2023-04-15T01:52:58;43.43;31.40;56.66;;
58303;Laerm;44109;52.398;7.024;2023-04-15T01:55:26;43.73;31.22;57.34;;
58303;Laerm;44109;52.398;7.024;2023-04-15T01:57:54;43.44;30.81;57.07;;
58303;Laerm;44109;52.398;7.024;2023-04-15T02:00:23;43.15;31.13;56.64;;
58303;Laerm;44109;52.398;7.024;2023-04-15T02:02:50;43.36;30.99;56.70;;
58303;Laerm;44109;52.398;7.024;2023-04-15T02:05:18;43.13;31.14;56.63;;
58303;Laerm;44109;52.398;7.024;2023-04-15T02:07:47;43.34;31.35;57.37;;
58303;Laerm;44109;52.398;7.024;2023-04-15T02:10:14;43.19;31.21;57.17;;
58303;Laerm;44109;52.398;7.024;2023-04-15T02:12:42;43.07;31.48;57.35;;
58303;Laerm;44109;52.398;7.024;2023-04-15T02:15:10;42.98;31.37;57.23;;
58303;Laerm;44109;52.398;7.024;2023-04-15T02:17:39;42.73;31.07;57.56;;
58303;Laerm;44109;52.398;7.024;2023-04-15T02:20:11;42.38;30.84;57.48;;
58303;Laerm;44109;52.398;7.024;2023-04-15T02:22:38;42.72;31.25;57.38;;
58303;Laerm;44109;52.398;7.024;2023-04-15T02:25:08;42.85;31.15;57.24;;
58303;Laerm;44109;52.398;7.024;2023-04-15T02:27:36;42.79;31.18;57.25;;
58303;Laerm;44109;52.398;7.024;2023-04-15T02:30:05;42.81;31.38;57.27;;
58303;Laerm;44109;52.398;7.024;2023-04-15T02:32:33;42.98;31.80;57.39;;
58303;Laerm;44109;52.398;7.024;2023-04-15T02:35:06;42.53;31.15;57.44;;
58303;Laerm;44109;52.398;7.024;2023-04-15T02:37:36;42.80;32.19;56.76;;
58303;Laerm;44109;52.398;7.024;2023-04-15T02:40:09;42.58;31.52;56.42;;
58303;Laerm;44109;52.398;7.024;2023-04-15T02:42:38;42.60;31.10;57.00;;
58303;Laerm;44109;52.398;7.024;2023-04-15T02:45:07;42.55;31.55;57.04;;
58303;Laerm;44109;52.398;7.024;2023-04-15T02:47:35;42.56;31.21;57.52;;
58303;Laerm;44109;52.398;7.024;2023-04-15T02:50:07;42.52;31.63;56.98;;
58303;Laerm;44109;52.398;7.024;2023-04-15T02:52:38;44.54;31.05;57.18;;
58303;Laerm;44109;52.398;7.024;2023-04-15T02:55:08;45.66;31.71;57.38;;
58303;Laerm;44109;52.398;7.024;2023-04-15T02:57:36;42.76;31.15;57.28;;
58303;Laerm;44109;52.398;7.024;2023-04-15T03:00:06;42.49;31.49;56.79;;
58303;Laerm;44109;52.398;7.024;2023-04-15T03:02:36;42.99;31.43;56.94;;
58303;Laerm;44109;52.398;7.024;2023-04-15T03:05:10;42.54;31.42;57.31;;
58303;Laerm;44109;52.398;7.024;2023-04-15T03:07:37;42.62;31.30;57.32;;
58303;Laerm;44109;52.398;7.024;2023-04-15T03:10:07;45.26;31.64;59.15;;
58303;Laerm;44109;52.398;7.024;2023-04-15T03:12:35;42.41;31.53;57.18;;
58303;Laerm;44109;52.398;7.024;2023-04-15T03:15:03;42.48;31.34;57.04;;
58303;Laerm;44109;52.398;7.024;2023-04-15T03:17:31;43.26;31.61;57.14;;
58303;Laerm;44109;52.398;7.024;2023-04-15T03:20:00;46.01;32.23;58.86;;
58303;Laerm;44109;52.398;7.024;2023-04-15T03:22:30;43.20;32.14;57.66;;
58303;Laerm;44109;52.398;7.024;2023-04-15T03:24:58;43.48;32.02;57.48;;
58303;Laerm;44109;52.398;7.024;2023-04-15T03:27:25;43.04;32.06;56.25;;
58303;Laerm;44109;52.398;7.024;2023-04-15T03:29:53;43.01;31.65;56.38;;
58303;Laerm;44109;52.398;7.024;2023-04-15T03:32:22;46.34;31.34;61.70;;
58303;Laerm;44109;52.398;7.024;2023-04-15T03:34:49;48.51;33.57;63.41;;
58303;Laerm;44109;52.398;7.024;2023-04-15T03:37:17;47.30;35.14;61.13;;
58303;Laerm;44109;52.398;7.024;2023-04-15T03:39:46;49.08;33.08;63.40;;
58303;Laerm;44109;52.398;7.024;2023-04-15T03:42:13;52.49;33.66;67.25;;
58303;Laerm;44109;52.398;7.024;2023-04-15T03:44:41;54.60;34.23;68.89;;
58303;Laerm;44109;52.398;7.024;2023-04-15T03:47:09;57.89;35.55;74.37;;
58303;Laerm;44109;52.398;7.024;2023-04-15T03:49:37;58.02;35.88;75.27;;
58303;Laerm;44109;52.398;7.024;2023-04-15T03:52:05;61.48;35.79;76.32;;
58303;Laerm;44109;52.398;7.024;2023-04-15T03:54:32;59.32;34.50;75.02;;
58303;Laerm;44109;52.398;7.024;2023-04-15T03:57:01;59.35;36.50;74.22;;
58303;Laerm;44109;52.398;7.024;2023-04-15T03:59:29;58.90;36.30;75.04;;
58303;Laerm;44109;52.398;7.024;2023-04-15T04:01:56;56.54;34.71;73.17;;
58303;Laerm;44109;52.398;7.024;2023-04-15T04:04:24;57.94;34.97;72.91;;
58303;Laerm;44109;52.398;7.024;2023-04-15T04:06:51;54.84;34.90;73.15;;
58303;Laerm;44109;52.398;7.024;2023-04-15T04:09:19;59.59;35.17;77.07;;
58303;Laerm;44109;52.398;7.024;2023-04-15T04:11:47;57.81;35.92;73.14;;
58303;Laerm;44109;52.398;7.024;2023-04-15T04:14:16;52.26;36.38;69.27;;
58303;Laerm;44109;52.398;7.024;2023-04-15T04:16:43;52.81;35.48;69.13;;
58303;Laerm;44109;52.398;7.024;2023-04-15T04:19:11;64.69;35.32;83.00;;
58303;Laerm;44109;52.398;7.024;2023-04-15T04:21:40;57.13;35.39;75.13;;
58303;Laerm;44109;52.398;7.024;2023-04-15T04:24:07;51.15;35.44;63.97;;
58303;Laerm;44109;52.398;7.024;2023-04-15T04:26:35;51.83;35.68;67.63;;
58303;Laerm;44109;52.398;7.024;2023-04-15T04:29:02;51.34;34.72;65.25;;
58303;Laerm;44109;52.398;7.024;2023-04-15T04:31:31;54.16;35.12;70.98;;
58303;Laerm;44109;52.398;7.024;2023-04-15T04:33:59;47.55;34.87;60.88;;
58303;Laerm;44109;52.398;7.024;2023-04-15T04:36:27;48.73;35.35;70.87;;
58303;Laerm;44109;52.398;7.024;2023-04-15T04:38:54;49.13;34.87;63.64;;
58303;Laerm;44109;52.398;7.024;2023-04-15T04:41:22;46.70;34.70;59.32;;
58303;Laerm;44109;52.398;7.024;2023-04-15T04:43:50;47.29;34.26;65.52;;
58303;Laerm;44109;52.398;7.024;2023-04-15T04:46:17;51.73;34.23;70.58;;
58303;Laerm;44109;52.398;7.024;2023-04-15T04:48:46;53.29;34.07;75.08;;
58303;Laerm;44109;52.398;7.024;2023-04-15T04:51:14;49.25;33.92;74.62;;
58303;Laerm;44109;52.398;7.024;2023-04-15T04:53:41;46.41;33.91;61.66;;
58303;Laerm;44109;52.398;7.024;2023-04-15T04:56:09;47.02;35.03;61.11;;
58303;Laerm;44109;52.398;7.024;2023-04-15T04:58:37;48.08;36.30;68.39;;
58303;Laerm;44109;52.398;7.024;2023-04-15T05:01:04;47.71;34.17;64.36;;
58303;Laerm;44109;52.398;7.024;2023-04-15T05:03:32;45.80;34.69;59.74;;
58303;Laerm;44109;52.398;7.024;2023-04-15T05:06:01;48.44;35.58;64.37;;
58303;Laerm;44109;52.398;7.024;2023-04-15T05:08:31;47.94;35.11;61.16;;
58303;Laerm;44109;52.398;7.024;2023-04-15T05:10:59;46.41;34.75;59.74;;
58303;Laerm;44109;52.398;7.024;2023-04-15T05:13:26;46.58;34.83;62.66;;
58303;Laerm;44109;52.398;7.024;2023-04-15T05:15:55;47.92;34.94;68.65;;
58303;Laerm;44109;52.398;7.024;2023-04-15T05:18:22;49.67;35.53;68.41;;
58303;Laerm;44109;52.398;7.024;2023-04-15T05:20:50;48.42;35.31;66.79;;
58303;Laerm;44109;52.398;7.024;2023-04-15T05:23:19;50.38;35.66;65.48;;
58303;Laerm;44109;52.398;7.024;2023-04-15T05:25:47;49.41;35.53;66.21;;
58303;Laerm;44109;52.398;7.024;2023-04-15T05:28:15;48.45;35.47;65.62;;
58303;Laerm;44109;52.398;7.024;2023-04-15T05:30:42;49.05;36.88;64.03;;
58303;Laerm;44109;52.398;7.024;2023-04-15T05:33:10;48.61;37.50;63.61;;
58303;Laerm;44109;52.398;7.024;2023-04-15T05:35:38;48.22;36.26;63.89;;
58303;Laerm;44109;52.398;7.024;2023-04-15T05:38:05;51.58;35.11;75.50;;
58303;Laerm;44109;52.398;7.024;2023-04-15T05:40:35;48.73;36.10;64.15;;
58303;Laerm;44109;52.398;7.024;2023-04-15T05:43:03;49.96;36.30;67.50;;
58303;Laerm;44109;52.398;7.024;2023-04-15T05:45:30;49.52;37.15;62.17;;
58303;Laerm;44109;52.398;7.024;2023-04-15T05:47:58;54.34;36.98;78.70;;
58303;Laerm;44109;52.398;7.024;2023-04-15T05:50:26;50.01;37.11;67.46;;
58303;Laerm;44109;52.398;7.024;2023-04-15T05:52:54;49.95;37.93;68.58;;
58303;Laerm;44109;52.398;7.024;2023-04-15T05:55:21;47.89;37.07;59.61;;
58303;Laerm;44109;52.398;7.024;2023-04-15T05:57:50;47.70;36.56;64.96;;
58303;Laerm;44109;52.398;7.024;2023-04-15T06:00:18;48.64;37.51;63.41;;
58303;Laerm;44109;52.398;7.024;2023-04-15T06:02:46;50.47;45.52;66.21;;
58303;Laerm;44109;52.398;7.024;2023-04-15T06:05:14;50.05;45.38;64.36;;
58303;Laerm;44109;52.398;7.024;2023-04-15T06:07:41;49.94;42.34;71.33;;
58303;Laerm;44109;52.398;7.024;2023-04-15T06:10:10;49.72;41.69;65.67;;
58303;Laerm;44109;52.398;7.024;2023-04-15T06:12:37;52.25;45.02;68.25;;
58303;Laerm;44109;52.398;7.024;2023-04-15T06:15:08;51.76;39.03;70.96;;
58303;Laerm;44109;52.398;7.024;2023-04-15T06:17:36;57.15;36.29;87.03;;
58303;Laerm;44109;52.398;7.024;2023-04-15T06:20:05;51.45;37.33;71.20;;
58303;Laerm;44109;52.398;7.024;2023-04-15T06:22:36;59.17;36.62;81.23;;
58303;Laerm;44109;52.398;7.024;2023-04-15T06:25:05;57.54;37.48;76.53;;
58303;Laerm;44109;52.398;7.024;2023-04-15T06:27:33;50.56;37.41;65.40;;
58303;Laerm;44109;52.398;7.024;2023-04-15T06:30:01;51.85;37.45;65.28;;
58303;Laerm;44109;52.398;7.024;2023-04-15T06:32:31;50.07;37.54;64.91;;
58303;Laerm;44109;52.398;7.024;2023-04-15T06:34:59;49.66;37.67;65.37;;
58303;Laerm;44109;52.398;7.024;2023-04-15T06:37:26;50.25;37.58;65.14;;
58303;Laerm;44109;52.398;7.024;2023-04-15T06:40:09;50.90;37.98;65.68;;
58303;Laerm;44109;52.398;7.024;2023-04-15T06:42:37;53.29;38.66;64.77;;
58303;Laerm;44109;52.398;7.024;2023-04-15T06:45:06;53.64;47.06;69.29;;
58303;Laerm;44109;52.398;7.024;2023-04-15T06:47:35;52.80;46.68;65.37;;
58303;Laerm;44109;52.398;7.024;2023-04-15T06:50:04;54.80;46.50;79.99;;
58303;Laerm;44109;52.398;7.024;2023-04-15T06:52:32;50.13;39.60;59.57;;
58303;Laerm;44109;52.398;7.024;2023-04-15T06:55:00;49.68;37.07;64.49;;
58303;Laerm;44109;52.398;7.024;2023-04-15T06:57:28;50.48;37.27;63.02;;
58303;Laerm;44109;52.398;7.024;2023-04-15T06:59:55;53.21;38.50;65.82;;
58303;Laerm;44109;52.398;7.024;2023-04-15T07:02:23;51.66;38.51;63.35;;
58303;Laerm;44109;52.398;7.024;2023-04-15T07:04:52;48.36;37.87;63.61;;
58303;Laerm;44109;52.398;7.024;2023-04-15T07:07:20;48.88;38.23;61.12;;
58303;Laerm;44109;52.398;7.024;2023-04-15T07:09:48;48.25;37.30;59.28;;
58303;Laerm;44109;52.398;7.024;2023-04-15T07:12:16;50.97;38.00;71.46;;
58303;Laerm;44109;52.398;7.024;2023-04-15T07:14:43;48.81;37.05;60.71;;
58303;Laerm;44109;52.398;7.024;2023-04-15T07:17:11;49.81;39.55;65.17;;
58303;Laerm;44109;52.398;7.024;2023-04-15T07:19:38;47.60;38.45;59.71;;
58303;Laerm;44109;52.398;7.024;2023-04-15T07:22:07;48.76;38.55;61.46;;
58303;Laerm;44109;52.398;7.024;2023-04-15T07:24:35;50.34;38.94;63.93;;
58303;Laerm;44109;52.398;7.024;2023-04-15T07:27:03;50.24;37.39;65.55;;
58303;Laerm;44109;52.398;7.024;2023-04-15T07:29:30;48.71;38.68;66.45;;
58303;Laerm;44109;52.398;7.024;2023-04-15T07:31:58;49.79;39.12;62.93;;
58303;Laerm;44109;52.398;7.024;2023-04-15T07:34:26;48.34;38.78;60.94;;
58303;Laerm;44109;52.398;7.024;2023-04-15T07:36:55;48.11;38.34;59.84;;
58303;Laerm;44109;52.398;7.024;2023-04-15T07:39:23;48.74;39.11;62.05;;
58303;Laerm;44109;52.398;7.024;2023-04-15T07:41:51;49.47;39.30;64.70;;
58303;Laerm;44109;52.398;7.024;2023-04-15T07:44:19;49.06;39.29;65.15;;
58303;Laerm;44109;52.398;7.024;2023-04-15T07:46:47;50.72;38.31;67.99;;
58303;Laerm;44109;52.398;7.024;2023-04-15T07:49:14;51.18;40.34;67.75;;
58303;Laerm;44109;52.398;7.024;2023-04-15T07:51:44;52.21;39.76;64.97;;
58303;Laerm;44109;52.398;7.024;2023-04-15T07:54:12;52.00;38.77;68.57;;
58303;Laerm;44109;52.398;7.024;2023-04-15T07:56:41;51.46;40.16;65.06;;
58303;Laerm;44109;52.398;7.024;2023-04-15T07:59:09;51.47;40.86;65.93;;
58303;Laerm;44109;52.398;7.024;2023-04-15T08:01:36;50.47;41.56;65.66;;
58303;Laerm;44109;52.398;7.024;2023-04-15T08:04:04;49.87;40.82;63.09;;
58303;Laerm;44109;52.398;7.024;2023-04-15T08:06:32;49.05;40.13;57.42;;
58303;Laerm;44109;52.398;7.024;2023-04-15T08:09:00;49.31;37.87;64.98;;
58303;Laerm;44109;52.398;7.024;2023-04-15T08:11:27;48.31;38.01;57.40;;
58303;Laerm;44109;52.398;7.024;2023-04-15T08:13:56;50.87;41.72;71.42;;
58303;Laerm;44109;52.398;7.024;2023-04-15T08:16:25;52.51;40.02;71.97;;
58303;Laerm;44109;52.398;7.024;2023-04-15T08:18:55;51.22;42.29;66.08;;
58303;Laerm;44109;52.398;7.024;2023-04-15T08:21:23;52.42;40.94;70.75;;
58303;Laerm;44109;52.398;7.024;2023-04-15T08:23:52;50.54;40.00;64.10;;
58303;Laerm;44109;52.398;7.024;2023-04-15T08:26:20;50.72;40.02;64.10;;
58303;Laerm;44109;52.398;7.024;2023-04-15T08:28:48;49.90;39.36;66.55;;
58303;Laerm;44109;52.398;7.024;2023-04-15T08:31:18;49.72;40.70;66.68;;
58303;Laerm;44109;52.398;7.024;2023-04-15T08:33:46;51.18;39.74;64.35;;
58303;Laerm;44109;52.398;7.024;2023-04-15T08:36:13;51.46;41.44;66.20;;
58303;Laerm;44109;52.398;7.024;2023-04-15T08:38:41;51.63;41.26;64.61;;
58303;Laerm;44109;52.398;7.024;2023-04-15T08:41:19;51.01;40.87;73.68;;
58303;Laerm;44109;52.398;7.024;2023-04-15T08:43:53;52.39;39.99;69.09;;
58303;Laerm;44109;52.398;7.024;2023-04-15T08:46:22;52.04;40.25;69.25;;
58303;Laerm;44109;52.398;7.024;2023-04-15T08:48:51;52.20;39.74;71.00;;
58303;Laerm;44109;52.398;7.024;2023-04-15T08:51:19;51.12;39.67;71.20;;
58303;Laerm;44109;52.398;7.024;2023-04-15T08:53:48;51.42;40.93;67.96;;
58303;Laerm;44109;52.398;7.024;2023-04-15T08:56:18;51.45;40.26;64.19;;
58303;Laerm;44109;52.398;7.024;2023-04-15T08:58:49;49.81;40.36;64.28;;
58303;Laerm;44109;52.398;7.024;2023-04-15T09:01:18;50.82;41.41;70.13;;
58303;Laerm;44109;52.398;7.024;2023-04-15T09:03:48;50.40;41.32;67.15;;
58303;Laerm;44109;52.398;7.024;2023-04-15T09:06:17;49.56;39.95;65.57;;
58303;Laerm;44109;52.398;7.024;2023-04-15T09:08:44;50.51;40.16;64.54;;
58303;Laerm;44109;52.398;7.024;2023-04-15T09:11:12;50.14;39.49;70.47;;
58303;Laerm;44109;52.398;7.024;2023-04-15T09:13:40;52.35;41.07;70.71;;
58303;Laerm;44109;52.398;7.024;2023-04-15T09:16:08;50.63;40.23;61.99;;
58303;Laerm;44109;52.398;7.024;2023-04-15T09:18:37;54.04;40.67;69.69;;
58303;Laerm;44109;52.398;7.024;2023-04-15T09:21:12;54.73;39.69;70.03;;
58303;Laerm;44109;52.398;7.024;2023-04-15T09:23:53;52.49;40.19;68.74;;
58303;Laerm;44109;52.398;7.024;2023-04-15T09:26:31;51.96;40.83;67.28;;
58303;Laerm;44109;52.398;7.024;2023-04-15T09:29:04;51.78;40.57;70.23;;
58303;Laerm;44109;52.398;7.024;2023-04-15T09:31:33;52.72;41.75;66.05;;
58303;Laerm;44109;52.398;7.024;2023-04-15T09:34:00;50.64;40.68;62.65;;
58303;Laerm;44109;52.398;7.024;2023-04-15T09:36:50;51.29;41.65;69.12;;
58303;Laerm;44109;52.398;7.024;2023-04-15T09:39:18;50.19;40.11;63.10;;
58303;Laerm;44109;52.398;7.024;2023-04-15T09:41:46;51.73;42.80;64.20;;
58303;Laerm;44109;52.398;7.024;2023-04-15T09:44:22;52.77;43.05;64.44;;
58303;Laerm;44109;52.398;7.024;2023-04-15T09:46:50;51.05;42.84;65.06;;
58303;Laerm;44109;52.398;7.024;2023-04-15T09:49:17;51.38;40.92;64.45;;
58303;Laerm;44109;52.398;7.024;2023-04-15T09:51:47;52.34;43.24;64.72;;
58303;Laerm;44109;52.398;7.024;2023-04-15T09:54:18;51.18;41.59;63.75;;
58303;Laerm;44109;52.398;7.024;2023-04-15T09:56:47;52.70;42.98;78.25;;
58303;Laerm;44109;52.398;7.024;2023-04-15T09:59:15;52.57;43.87;67.48;;
58303;Laerm;44109;52.398;7.024;2023-04-15T10:01:43;51.84;42.62;67.71;;
58303;Laerm;44109;52.398;7.024;2023-04-15T10:04:12;50.44;40.25;65.92;;
58303;Laerm;44109;52.398;7.024;2023-04-15T10:06:40;50.81;39.78;64.35;;
58303;Laerm;44109;52.398;7.024;2023-04-15T10:09:09;53.09;40.31;64.09;;
58303;Laerm;44109;52.398;7.024;2023-04-15T10:11:37;53.97;40.16;74.77;;
58303;Laerm;44109;52.398;7.024;2023-04-15T10:14:06;54.61;41.11;63.76;;
58303;Laerm;44109;52.398;7.024;2023-04-15T10:16:38;53.54;41.44;64.91;;
58303;Laerm;44109;52.398;7.024;2023-04-15T10:19:08;53.07;39.89;63.90;;
58303;Laerm;44109;52.398;7.024;2023-04-15T10:21:38;54.42;40.54;65.61;;
58303;Laerm;44109;52.398;7.024;2023-04-15T10:24:08;53.20;41.19;68.62;;
58303;Laerm;44109;52.398;7.024;2023-04-15T10:26:37;52.82;41.49;68.24;;
58303;Laerm;44109;52.398;7.024;2023-04-15T10:29:05;52.84;41.34;69.77;;
58303;Laerm;44109;52.398;7.024;2023-04-15T10:31:34;50.99;41.03;68.42;;
58303;Laerm;44109;52.398;7.024;2023-04-15T10:34:04;51.31;42.19;65.39;;
58303;Laerm;44109;52.398;7.024;2023-04-15T10:36:32;54.10;41.11;68.34;;
58303;Laerm;44109;52.398;7.024;2023-04-15T10:39:00;53.67;42.01;72.62;;
58303;Laerm;44109;52.398;7.024;2023-04-15T10:41:29;50.43;42.04;70.02;;
58303;Laerm;44109;52.398;7.024;2023-04-15T10:44:03;51.78;40.35;74.07;;
58303;Laerm;44109;52.398;7.024;2023-04-15T10:46:36;55.09;41.14;84.76;;
58303;Laerm;44109;52.398;7.024;2023-04-15T10:49:08;49.42;39.30;59.56;;
58303;Laerm;44109;52.398;7.024;2023-04-15T10:51:39;51.32;39.88;68.55;;
58303;Laerm;44109;52.398;7.024;2023-04-15T10:54:13;52.17;40.37;67.73;;
58303;Laerm;44109;52.398;7.024;2023-04-15T10:56:43;51.52;42.01;67.28;;
58303;Laerm;44109;52.398;7.024;2023-04-15T10:59:11;50.31;39.52;66.99;;
58303;Laerm;44109;52.398;7.024;2023-04-15T11:01:53;65.40;40.99;93.70;;
58303;Laerm;44109;52.398;7.024;2023-04-15T11:04:53;58.64;40.64;83.20;;
58303;Laerm;44109;52.398;7.024;2023-04-15T11:07:36;52.19;42.09;70.04;;
58303;Laerm;44109;52.398;7.024;2023-04-15T11:10:52;59.38;40.57;89.62;;
58303;Laerm;44109;52.398;7.024;2023-04-15T11:13:26;52.51;41.25;68.60;;
58303;Laerm;44109;52.398;7.024;2023-04-15T11:15:59;51.82;41.04;72.21;;
58303;Laerm;44109;52.398;7.024;2023-04-15T11:18:33;50.44;41.24;66.51;;
58303;Laerm;44109;52.398;7.024;2023-04-15T11:21:03;46.90;39.04;67.44;;
58303;Laerm;44109;52.398;7.024;2023-04-15T11:23:34;49.40;39.59;66.08;;
58303;Laerm;44109;52.398;7.024;2023-04-15T11:26:04;51.73;39.02;68.80;;
58303;Laerm;44109;52.398;7.024;2023-04-15T11:28:36;51.51;40.92;71.41;;
58303;Laerm;44109;52.398;7.024;2023-04-15T11:31:10;50.91;41.03;70.06;;
58303;Laerm;44109;52.398;7.024;2023-04-15T11:33:46;53.28;41.09;68.91;;
58303;Laerm;44109;52.398;7.024;2023-04-15T11:36:14;52.56;39.56;77.18;;
58303;Laerm;44109;52.398;7.024;2023-04-15T11:38:43;49.39;39.90;65.48;;
58303;Laerm;44109;52.398;7.024;2023-04-15T11:41:11;52.30;41.27;74.89;;
58303;Laerm;44109;52.398;7.024;2023-04-15T11:43:41;52.25;40.28;77.65;;
58303;Laerm;44109;52.398;7.024;2023-04-15T11:46:08;50.86;41.17;73.10;;
58303;Laerm;44109;52.398;7.024;2023-04-15T11:48:41;52.14;41.28;73.24;;
58303;Laerm;44109;52.398;7.024;2023-04-15T11:51:11;51.35;40.49;73.60;;
58303;Laerm;44109;52.398;7.024;2023-04-15T11:53:42;51.14;41.30;68.35;;
58303;Laerm;44109;52.398;7.024;2023-04-15T11:56:17;51.07;40.47;66.87;;
58303;Laerm;44109;52.398;7.024;2023-04-15T11:58:51;53.40;38.97;74.76;;
58303;Laerm;44109;52.398;7.024;2023-04-15T12:01:18;57.64;39.07;73.40;;
58303;Laerm;44109;52.398;7.024;2023-04-15T12:03:48;54.91;39.66;71.20;;
58303;Laerm;44109;52.398;7.024;2023-04-15T12:06:17;49.07;39.16;66.07;;
58303;Laerm;44109;52.398;7.024;2023-04-15T12:09:07;52.16;41.28;71.87;;
58303;Laerm;44109;52.398;7.024;2023-04-15T12:11:44;49.95;40.51;66.15;;
58303;Laerm;44109;52.398;7.024;2023-04-15T12:14:19;51.70;40.11;69.55;;
58303;Laerm;44109;52.398;7.024;2023-04-15T12:16:50;50.29;38.68;65.98;;
58303;Laerm;44109;52.398;7.024;2023-04-15T12:19:24;51.92;40.50;78.08;;
58303;Laerm;44109;52.398;7.024;2023-04-15T12:21:57;52.60;42.43;72.02;;
58303;Laerm;44109;52.398;7.024;2023-04-15T12:24:26;49.75;40.52;63.66;;
58303;Laerm;44109;52.398;7.024;2023-04-15T12:26:55;52.02;41.42;70.35;;
58303;Laerm;44109;52.398;7.024;2023-04-15T12:29:27;50.15;40.81;68.25;;
58303;Laerm;44109;52.398;7.024;2023-04-15T12:31:57;52.93;41.33;75.95;;
58303;Laerm;44109;52.398;7.024;2023-04-15T12:34:28;57.14;41.82;74.28;;
58303;Laerm;44109;52.398;7.024;2023-04-15T12:36:58;52.71;40.56;68.52;;
58303;Laerm;44109;52.398;7.024;2023-04-15T12:39:28;52.18;41.43;66.82;;
58303;Laerm;44109;52.398;7.024;2023-04-15T12:41:56;50.23;41.44;65.85;;
58303;Laerm;44109;52.398;7.024;2023-04-15T12:44:26;50.06;40.51;69.19;;
58303;Laerm;44109;52.398;7.024;2023-04-15T12:46:54;51.81;40.61;68.24;;
58303;Laerm;44109;52.398;7.024;2023-04-15T12:49:23;51.16;40.66;69.96;;
58303;Laerm;44109;52.398;7.024;2023-04-15T12:51:53;49.98;40.41;62.03;;
58303;Laerm;44109;52.398;7.024;2023-04-15T12:54:31;50.38;38.78;66.87;;
58303;Laerm;44109;52.398;7.024;2023-04-15T12:56:59;53.08;41.70;69.14;;
58303;Laerm;44109;52.398;7.024;2023-04-15T12:59:29;52.02;41.09;72.58;;
58303;Laerm;44109;52.398;7.024;2023-04-15T13:01:57;51.05;41.38;69.63;;
58303;Laerm;44109;52.398;7.024;2023-04-15T13:04:25;51.89;40.46;67.20;;
58303;Laerm;44109;52.398;7.024;2023-04-15T13:06:55;50.71;40.41;73.34;;
58303;Laerm;44109;52.398;7.024;2023-04-15T13:09:23;49.71;40.40;64.38;;
58303;Laerm;44109;52.398;7.024;2023-04-15T13:11:51;51.09;40.43;74.51;;
58303;Laerm;44109;52.398;7.024;2023-04-15T13:14:19;52.70;42.60;73.59;;
58303;Laerm;44109;52.398;7.024;2023-04-15T13:16:48;55.77;42.60;83.84;;
58303;Laerm;44109;52.398;7.024;2023-04-15T13:19:16;55.00;42.04;82.99;;
58303;Laerm;44109;52.398;7.024;2023-04-15T13:21:43;53.58;41.92;74.90;;
58303;Laerm;44109;52.398;7.024;2023-04-15T13:24:11;53.46;42.08;78.69;;
58303;Laerm;44109;52.398;7.024;2023-04-15T13:26:39;55.36;42.25;75.96;;
58303;Laerm;44109;52.398;7.024;2023-04-15T13:29:07;54.57;43.87;76.36;;
58303;Laerm;44109;52.398;7.024;2023-04-15T13:31:35;55.48;43.82;76.32;;
58303;Laerm;44109;52.398;7.024;2023-04-15T13:34:04;53.73;43.15;76.93;;
58303;Laerm;44109;52.398;7.024;2023-04-15T13:36:31;53.52;44.08;75.44;;
58303;Laerm;44109;52.398;7.024;2023-04-15T13:38:59;53.86;42.01;77.17;;
58303;Laerm;44109;52.398;7.024;2023-04-15T13:41:27;51.40;40.65;72.22;;
58303;Laerm;44109;52.398;7.024;2023-04-15T13:43:54;51.08;40.37;66.71;;
58303;Laerm;44109;52.398;7.024;2023-04-15T13:46:23;53.04;40.58;77.42;;
58303;Laerm;44109;52.398;7.024;2023-04-15T13:48:52;51.93;41.23;69.39;;
58303;Laerm;44109;52.398;7.024;2023-04-15T13:51:21;50.44;41.28;67.77;;
58303;Laerm;44109;52.398;7.024;2023-04-15T13:53:48;51.46;41.55;68.65;;
58303;Laerm;44109;52.398;7.024;2023-04-15T13:56:16;50.17;40.56;64.77;;